Terminal Aerodrome Forecast
Issued by NWS Wilmington, OH

Current Version | Previous Version | Text Only | Print | Product List | Glossary Off
Versions: 1 2 3 4 5 6 7 8 9 10 11 12 13 14 15 16 17 18 19 20

000
FTUS41 KILN 302327
TAFILN
TAF
KILN 302327Z 3100/3124 VRB03KT P6SM VCTS BKN040CB
     FM310100 21004KT P6SM SCT040 BKN250
     FM310800 21004KT 4SM BR SCT050 BKN250
      TEMPO 3109/3112 2SM BR
     FM311400 24006KT P6SM SCT020 SCT100
     FM311800 23006KT P6SM VCSH BKN040=

USA.gov is the U.S. government's official web portal to all federal, state and local government web resources and services.